sensor_id;sensor_type;location;lat;lon;timestamp;P1;durP1;ratioP1;P2;durP2;ratioP2
48554;SDS011;34336;48.270;16.716;2023-08-24T00:01:53;11.05;;;9.90;;
48554;SDS011;34336;48.270;16.716;2023-08-24T00:04:20;11.52;;;9.57;;
48554;SDS011;34336;48.270;16.716;2023-08-24T00:06:46;10.68;;;9.65;;
48554;SDS011;34336;48.270;16.716;2023-08-24T00:09:13;12.75;;;10.07;;
48554;SDS011;34336;48.270;16.716;2023-08-24T00:11:42;12.50;;;10.50;;
48554;SDS011;34336;48.270;16.716;2023-08-24T00:14:09;11.68;;;10.38;;
48554;SDS011;34336;48.270;16.716;2023-08-24T00:16:35;11.60;;;10.27;;
48554;SDS011;34336;48.270;16.716;2023-08-24T00:19:03;12.98;;;10.27;;
48554;SDS011;34336;48.270;16.716;2023-08-24T00:21:30;13.13;;;9.98;;
48554;SDS011;34336;48.270;16.716;2023-08-24T00:23:57;12.25;;;10.45;;
48554;SDS011;34336;48.270;16.716;2023-08-24T00:26:24;12.35;;;10.45;;
48554;SDS011;34336;48.270;16.716;2023-08-24T00:28:51;11.82;;;10.73;;
48554;SDS011;34336;48.270;16.716;2023-08-24T00:31:19;13.85;;;10.85;;
48554;SDS011;34336;48.270;16.716;2023-08-24T00:33:47;14.55;;;11.15;;
48554;SDS011;34336;48.270;16.716;2023-08-24T00:36:17;12.40;;;11.13;;
48554;SDS011;34336;48.270;16.716;2023-08-24T00:38:48;11.93;;;10.77;;
48554;SDS011;34336;48.270;16.716;2023-08-24T00:41:17;12.65;;;11.43;;
48554;SDS011;34336;48.270;16.716;2023-08-24T00:43:44;12.35;;;10.93;;
48554;SDS011;34336;48.270;16.716;2023-08-24T00:46:11;13.05;;;11.60;;
48554;SDS011;34336;48.270;16.716;2023-08-24T00:48:39;12.15;;;10.93;;
48554;SDS011;34336;48.270;16.716;2023-08-24T00:51:06;12.88;;;11.35;;
48554;SDS011;34336;48.270;16.716;2023-08-24T00:53:33;11.50;;;10.38;;
48554;SDS011;34336;48.270;16.716;2023-08-24T00:56:01;11.95;;;10.43;;
48554;SDS011;34336;48.270;16.716;2023-08-24T00:58:28;13.23;;;10.93;;
48554;SDS011;34336;48.270;16.716;2023-08-24T01:00:56;14.70;;;12.38;;
48554;SDS011;34336;48.270;16.716;2023-08-24T01:03:23;14.68;;;13.15;;
48554;SDS011;34336;48.270;16.716;2023-08-24T01:05:51;16.23;;;14.05;;
48554;SDS011;34336;48.270;16.716;2023-08-24T01:08:19;16.65;;;13.75;;
48554;SDS011;34336;48.270;16.716;2023-08-24T01:13:20;15.82;;;13.20;;
48554;SDS011;34336;48.270;16.716;2023-08-24T01:18:27;14.43;;;13.02;;
48554;SDS011;34336;48.270;16.716;2023-08-24T01:20:56;15.55;;;13.95;;
48554;SDS011;34336;48.270;16.716;2023-08-24T01:23:45;16.15;;;14.45;;
48554;SDS011;34336;48.270;16.716;2023-08-24T01:26:20;16.63;;;14.77;;
48554;SDS011;34336;48.270;16.716;2023-08-24T01:28:47;16.70;;;15.00;;
48554;SDS011;34336;48.270;16.716;2023-08-24T01:31:14;16.92;;;15.15;;
48554;SDS011;34336;48.270;16.716;2023-08-24T01:33:43;17.60;;;15.00;;
48554;SDS011;34336;48.270;16.716;2023-08-24T01:36:11;17.88;;;16.13;;
48554;SDS011;34336;48.270;16.716;2023-08-24T01:38:39;17.98;;;16.27;;
48554;SDS011;34336;48.270;16.716;2023-08-24T01:41:24;18.35;;;16.23;;
48554;SDS011;34336;48.270;16.716;2023-08-24T01:43:54;19.15;;;17.00;;
48554;SDS011;34336;48.270;16.716;2023-08-24T01:46:24;30.55;;;17.00;;
48554;SDS011;34336;48.270;16.716;2023-08-24T01:48:52;22.05;;;17.02;;
48554;SDS011;34336;48.270;16.716;2023-08-24T01:51:21;23.83;;;16.63;;
48554;SDS011;34336;48.270;16.716;2023-08-24T01:53:50;21.65;;;16.92;;
48554;SDS011;34336;48.270;16.716;2023-08-24T01:56:18;23.40;;;16.90;;
48554;SDS011;34336;48.270;16.716;2023-08-24T01:58:45;18.10;;;16.30;;
48554;SDS011;34336;48.270;16.716;2023-08-24T02:01:11;19.52;;;16.63;;
48554;SDS011;34336;48.270;16.716;2023-08-24T02:03:39;18.10;;;15.57;;
48554;SDS011;34336;48.270;16.716;2023-08-24T02:06:07;19.00;;;17.00;;
48554;SDS011;34336;48.270;16.716;2023-08-24T02:08:34;20.48;;;17.02;;
48554;SDS011;34336;48.270;16.716;2023-08-24T02:11:02;18.15;;;16.05;;
48554;SDS011;34336;48.270;16.716;2023-08-24T02:13:31;17.35;;;15.57;;
48554;SDS011;34336;48.270;16.716;2023-08-24T02:16:02;18.75;;;16.80;;
48554;SDS011;34336;48.270;16.716;2023-08-24T02:18:29;17.95;;;16.05;;
48554;SDS011;34336;48.270;16.716;2023-08-24T02:20:56;17.83;;;16.02;;
48554;SDS011;34336;48.270;16.716;2023-08-24T02:23:23;17.10;;;15.35;;
48554;SDS011;34336;48.270;16.716;2023-08-24T02:25:50;18.35;;;16.42;;
48554;SDS011;34336;48.270;16.716;2023-08-24T02:28:18;18.48;;;15.75;;
48554;SDS011;34336;48.270;16.716;2023-08-24T02:30:46;18.42;;;16.52;;
48554;SDS011;34336;48.270;16.716;2023-08-24T02:33:13;18.40;;;15.93;;
48554;SDS011;34336;48.270;16.716;2023-08-24T02:35:39;19.08;;;16.13;;
48554;SDS011;34336;48.270;16.716;2023-08-24T02:38:06;18.35;;;16.42;;
48554;SDS011;34336;48.270;16.716;2023-08-24T02:40:33;17.20;;;15.40;;
48554;SDS011;34336;48.270;16.716;2023-08-24T02:43:00;18.67;;;15.65;;
48554;SDS011;34336;48.270;16.716;2023-08-24T02:45:27;17.77;;;15.80;;
48554;SDS011;34336;48.270;16.716;2023-08-24T02:47:53;18.13;;;16.30;;
48554;SDS011;34336;48.270;16.716;2023-08-24T02:50:20;19.00;;;17.02;;
48554;SDS011;34336;48.270;16.716;2023-08-24T02:52:47;20.00;;;16.70;;
48554;SDS011;34336;48.270;16.716;2023-08-24T02:55:14;18.52;;;16.73;;
48554;SDS011;34336;48.270;16.716;2023-08-24T02:57:41;18.38;;;16.05;;
48554;SDS011;34336;48.270;16.716;2023-08-24T03:00:08;16.77;;;15.07;;
48554;SDS011;34336;48.270;16.716;2023-08-24T03:02:36;18.27;;;16.08;;
48554;SDS011;34336;48.270;16.716;2023-08-24T03:05:03;18.20;;;16.42;;
48554;SDS011;34336;48.270;16.716;2023-08-24T03:07:31;18.17;;;16.38;;
48554;SDS011;34336;48.270;16.716;2023-08-24T03:09:58;18.60;;;16.70;;
48554;SDS011;34336;48.270;16.716;2023-08-24T03:12:25;17.85;;;16.08;;
48554;SDS011;34336;48.270;16.716;2023-08-24T03:14:52;19.58;;;17.40;;
48554;SDS011;34336;48.270;16.716;2023-08-24T03:17:22;18.95;;;16.95;;
48554;SDS011;34336;48.270;16.716;2023-08-24T03:19:49;18.77;;;16.88;;
48554;SDS011;34336;48.270;16.716;2023-08-24T03:22:16;16.98;;;15.23;;
48554;SDS011;34336;48.270;16.716;2023-08-24T03:24:43;17.55;;;15.75;;
48554;SDS011;34336;48.270;16.716;2023-08-24T03:27:10;18.15;;;16.35;;
48554;SDS011;34336;48.270;16.716;2023-08-24T03:29:37;18.55;;;16.52;;
48554;SDS011;34336;48.270;16.716;2023-08-24T03:32:04;19.58;;;17.10;;
48554;SDS011;34336;48.270;16.716;2023-08-24T03:34:31;20.42;;;17.17;;
48554;SDS011;34336;48.270;16.716;2023-08-24T03:36:57;19.05;;;17.00;;
48554;SDS011;34336;48.270;16.716;2023-08-24T03:39:24;18.42;;;16.33;;
48554;SDS011;34336;48.270;16.716;2023-08-24T03:41:51;17.88;;;15.65;;
48554;SDS011;34336;48.270;16.716;2023-08-24T03:44:18;17.52;;;15.80;;
48554;SDS011;34336;48.270;16.716;2023-08-24T03:46:45;18.90;;;16.90;;
48554;SDS011;34336;48.270;16.716;2023-08-24T03:49:11;20.50;;;17.23;;
48554;SDS011;34336;48.270;16.716;2023-08-24T03:51:38;19.05;;;17.10;;
48554;SDS011;34336;48.270;16.716;2023-08-24T03:54:05;19.83;;;16.70;;
48554;SDS011;34336;48.270;16.716;2023-08-24T03:56:33;16.75;;;15.15;;
48554;SDS011;34336;48.270;16.716;2023-08-24T03:59:00;17.60;;;15.75;;
48554;SDS011;34336;48.270;16.716;2023-08-24T04:01:27;17.67;;;15.90;;
48554;SDS011;34336;48.270;16.716;2023-08-24T04:03:55;21.83;;;18.02;;
48554;SDS011;34336;48.270;16.716;2023-08-24T04:06:24;19.40;;;17.40;;
48554;SDS011;34336;48.270;16.716;2023-08-24T04:08:51;20.40;;;18.30;;
48554;SDS011;34336;48.270;16.716;2023-08-24T04:11:18;19.55;;;17.55;;
48554;SDS011;34336;48.270;16.716;2023-08-24T04:13:45;17.88;;;16.02;;
48554;SDS011;34336;48.270;16.716;2023-08-24T04:16:12;19.90;;;17.85;;
48554;SDS011;34336;48.270;16.716;2023-08-24T04:18:39;19.10;;;17.13;;
48554;SDS011;34336;48.270;16.716;2023-08-24T04:21:07;17.08;;;15.35;;
48554;SDS011;34336;48.270;16.716;2023-08-24T04:23:33;18.08;;;16.17;;
48554;SDS011;34336;48.270;16.716;2023-08-24T04:26:00;19.02;;;15.25;;
48554;SDS011;34336;48.270;16.716;2023-08-24T04:28:27;16.30;;;14.63;;
48554;SDS011;34336;48.270;16.716;2023-08-24T04:30:54;18.17;;;16.27;;
48554;SDS011;34336;48.270;16.716;2023-08-24T04:33:23;18.92;;;16.27;;
48554;SDS011;34336;48.270;16.716;2023-08-24T04:35:50;17.77;;;16.00;;
48554;SDS011;34336;48.270;16.716;2023-08-24T04:38:17;17.30;;;15.50;;
48554;SDS011;34336;48.270;16.716;2023-08-24T04:40:51;18.02;;;16.13;;
48554;SDS011;34336;48.270;16.716;2023-08-24T04:43:19;18.05;;;16.15;;
48554;SDS011;34336;48.270;16.716;2023-08-24T04:45:48;18.55;;;16.73;;
48554;SDS011;34336;48.270;16.716;2023-08-24T04:48:17;18.05;;;16.27;;
48554;SDS011;34336;48.270;16.716;2023-08-24T04:50:45;19.20;;;15.85;;
48554;SDS011;34336;48.270;16.716;2023-08-24T04:53:14;16.75;;;15.13;;
48554;SDS011;34336;48.270;16.716;2023-08-24T04:55:43;19.10;;;15.27;;
48554;SDS011;34336;48.270;16.716;2023-08-24T04:58:11;19.25;;;14.80;;
48554;SDS011;34336;48.270;16.716;2023-08-24T05:00:39;15.10;;;13.55;;
48554;SDS011;34336;48.270;16.716;2023-08-24T05:03:06;15.00;;;12.02;;
48554;SDS011;34336;48.270;16.716;2023-08-24T05:05:34;14.25;;;12.70;;
48554;SDS011;34336;48.270;16.716;2023-08-24T05:08:02;16.23;;;12.07;;
48554;SDS011;34336;48.270;16.716;2023-08-24T05:10:39;14.45;;;12.45;;
48554;SDS011;34336;48.270;16.716;2023-08-24T05:13:06;15.95;;;12.48;;
48554;SDS011;34336;48.270;16.716;2023-08-24T05:15:33;15.98;;;13.25;;
48554;SDS011;34336;48.270;16.716;2023-08-24T05:18:00;13.93;;;12.13;;
48554;SDS011;34336;48.270;16.716;2023-08-24T05:20:27;13.30;;;10.52;;
48554;SDS011;34336;48.270;16.716;2023-08-24T05:22:54;12.98;;;11.40;;
48554;SDS011;34336;48.270;16.716;2023-08-24T05:25:22;15.85;;;14.20;;
48554;SDS011;34336;48.270;16.716;2023-08-24T05:27:49;17.67;;;14.82;;
48554;SDS011;34336;48.270;16.716;2023-08-24T05:30:17;12.90;;;11.50;;
48554;SDS011;34336;48.270;16.716;2023-08-24T05:32:44;12.88;;;11.57;;
48554;SDS011;34336;48.270;16.716;2023-08-24T05:35:11;12.63;;;10.95;;
48554;SDS011;34336;48.270;16.716;2023-08-24T05:37:37;12.88;;;11.55;;
48554;SDS011;34336;48.270;16.716;2023-08-24T05:40:05;12.88;;;11.10;;
48554;SDS011;34336;48.270;16.716;2023-08-24T05:42:32;12.25;;;11.05;;
48554;SDS011;34336;48.270;16.716;2023-08-24T05:44:58;12.23;;;11.00;;
48554;SDS011;34336;48.270;16.716;2023-08-24T05:47:26;12.85;;;10.60;;
48554;SDS011;34336;48.270;16.716;2023-08-24T05:49:52;11.70;;;10.50;;
48554;SDS011;34336;48.270;16.716;2023-08-24T05:52:19;13.60;;;11.23;;
48554;SDS011;34336;48.270;16.716;2023-08-24T05:54:46;14.60;;;11.02;;
48554;SDS011;34336;48.270;16.716;2023-08-24T05:57:13;15.80;;;13.05;;
48554;SDS011;34336;48.270;16.716;2023-08-24T05:59:40;19.35;;;12.20;;
48554;SDS011;34336;48.270;16.716;2023-08-24T06:02:07;19.10;;;11.85;;
48554;SDS011;34336;48.270;16.716;2023-08-24T06:04:34;16.23;;;12.45;;
48554;SDS011;34336;48.270;16.716;2023-08-24T06:07:01;21.38;;;11.32;;
48554;SDS011;34336;48.270;16.716;2023-08-24T06:09:29;14.82;;;11.20;;
48554;SDS011;34336;48.270;16.716;2023-08-24T06:11:56;15.60;;;11.65;;
48554;SDS011;34336;48.270;16.716;2023-08-24T06:14:22;14.07;;;10.75;;
48554;SDS011;34336;48.270;16.716;2023-08-24T06:16:49;11.32;;;10.13;;
48554;SDS011;34336;48.270;16.716;2023-08-24T06:19:16;14.77;;;10.85;;
48554;SDS011;34336;48.270;16.716;2023-08-24T06:21:43;13.80;;;10.15;;
48554;SDS011;34336;48.270;16.716;2023-08-24T06:24:10;13.10;;;11.00;;
48554;SDS011;34336;48.270;16.716;2023-08-24T06:26:37;14.02;;;11.30;;
48554;SDS011;34336;48.270;16.716;2023-08-24T06:29:03;16.95;;;12.23;;
48554;SDS011;34336;48.270;16.716;2023-08-24T06:31:30;13.80;;;11.48;;
48554;SDS011;34336;48.270;16.716;2023-08-24T06:33:57;15.15;;;10.10;;
48554;SDS011;34336;48.270;16.716;2023-08-24T06:36:24;14.10;;;10.68;;
48554;SDS011;34336;48.270;16.716;2023-08-24T06:38:51;12.93;;;10.20;;
48554;SDS011;34336;48.270;16.716;2023-08-24T06:41:19;14.50;;;10.57;;
48554;SDS011;34336;48.270;16.716;2023-08-24T06:43:46;15.95;;;11.05;;
48554;SDS011;34336;48.270;16.716;2023-08-24T06:46:13;14.20;;;11.43;;
48554;SDS011;34336;48.270;16.716;2023-08-24T06:48:41;17.35;;;10.85;;
48554;SDS011;34336;48.270;16.716;2023-08-24T06:51:10;12.95;;;10.75;;
48554;SDS011;34336;48.270;16.716;2023-08-24T06:53:38;15.23;;;10.60;;
48554;SDS011;34336;48.270;16.716;2023-08-24T06:56:05;15.48;;;10.43;;
48554;SDS011;34336;48.270;16.716;2023-08-24T06:58:31;18.77;;;10.32;;
48554;SDS011;34336;48.270;16.716;2023-08-24T07:00:58;13.13;;;10.02;;
48554;SDS011;34336;48.270;16.716;2023-08-24T07:03:25;13.65;;;9.48;;
48554;SDS011;34336;48.270;16.716;2023-08-24T07:05:52;12.77;;;9.80;;
48554;SDS011;34336;48.270;16.716;2023-08-24T07:08:19;14.57;;;9.60;;
48554;SDS011;34336;48.270;16.716;2023-08-24T07:10:46;11.18;;;8.63;;
48554;SDS011;34336;48.270;16.716;2023-08-24T07:13:13;15.38;;;9.98;;
48554;SDS011;34336;48.270;16.716;2023-08-24T07:15:40;23.65;;;9.93;;
48554;SDS011;34336;48.270;16.716;2023-08-24T07:18:06;19.02;;;10.25;;
48554;SDS011;34336;48.270;16.716;2023-08-24T07:20:36;19.45;;;10.35;;
48554;SDS011;34336;48.270;16.716;2023-08-24T07:23:04;17.20;;;9.73;;
48554;SDS011;34336;48.270;16.716;2023-08-24T07:25:30;12.82;;;9.88;;
48554;SDS011;34336;48.270;16.716;2023-08-24T07:27:57;18.25;;;9.88;;
48554;SDS011;34336;48.270;16.716;2023-08-24T07:30:25;14.88;;;9.85;;
48554;SDS011;34336;48.270;16.716;2023-08-24T07:33:00;16.00;;;9.20;;
48554;SDS011;34336;48.270;16.716;2023-08-24T07:35:29;14.82;;;9.57;;
48554;SDS011;34336;48.270;16.716;2023-08-24T07:37:57;12.05;;;9.18;;
48554;SDS011;34336;48.270;16.716;2023-08-24T07:40:24;15.00;;;8.45;;
48554;SDS011;34336;48.270;16.716;2023-08-24T07:42:53;10.55;;;8.80;;
48554;SDS011;34336;48.270;16.716;2023-08-24T07:45:22;9.70;;;8.40;;
48554;SDS011;34336;48.270;16.716;2023-08-24T07:47:52;11.13;;;8.35;;
48554;SDS011;34336;48.270;16.716;2023-08-24T07:50:19;9.88;;;8.63;;
48554;SDS011;34336;48.270;16.716;2023-08-24T07:52:46;9.13;;;8.20;;
48554;SDS011;34336;48.270;16.716;2023-08-24T07:55:13;11.30;;;7.85;;
48554;SDS011;34336;48.270;16.716;2023-08-24T07:57:40;10.25;;;8.15;;
48554;SDS011;34336;48.270;16.716;2023-08-24T08:00:07;11.73;;;8.23;;
48554;SDS011;34336;48.270;16.716;2023-08-24T08:02:39;13.35;;;8.48;;
48554;SDS011;34336;48.270;16.716;2023-08-24T08:05:07;9.00;;;7.40;;
48554;SDS011;34336;48.270;16.716;2023-08-24T08:07:36;9.65;;;7.88;;
48554;SDS011;34336;48.270;16.716;2023-08-24T08:10:03;10.55;;;7.63;;
48554;SDS011;34336;48.270;16.716;2023-08-24T08:12:31;8.38;;;7.57;;
48554;SDS011;34336;48.270;16.716;2023-08-24T08:14:58;10.68;;;7.50;;
48554;SDS011;34336;48.270;16.716;2023-08-24T08:17:26;8.63;;;7.57;;
48554;SDS011;34336;48.270;16.716;2023-08-24T08:19:54;11.68;;;7.60;;
48554;SDS011;34336;48.270;16.716;2023-08-24T08:22:22;10.07;;;7.30;;
48554;SDS011;34336;48.270;16.716;2023-08-24T08:24:49;8.18;;;7.10;;
48554;SDS011;34336;48.270;16.716;2023-08-24T08:27:16;9.10;;;6.95;;
48554;SDS011;34336;48.270;16.716;2023-08-24T08:29:43;12.32;;;9.05;;
48554;SDS011;34336;48.270;16.716;2023-08-24T08:32:10;10.90;;;6.90;;
48554;SDS011;34336;48.270;16.716;2023-08-24T08:34:38;7.22;;;6.43;;
48554;SDS011;34336;48.270;16.716;2023-08-24T08:37:05;10.70;;;6.68;;
48554;SDS011;34336;48.270;16.716;2023-08-24T08:39:32;7.00;;;6.38;;
48554;SDS011;34336;48.270;16.716;2023-08-24T08:41:59;7.90;;;5.85;;
48554;SDS011;34336;48.270;16.716;2023-08-24T08:44:31;7.93;;;5.95;;
48554;SDS011;34336;48.270;16.716;2023-08-24T08:46:59;7.38;;;5.70;;
48554;SDS011;34336;48.270;16.716;2023-08-24T08:49:27;9.73;;;6.30;;
48554;SDS011;34336;48.270;16.716;2023-08-24T08:51:56;8.23;;;6.35;;
48554;SDS011;34336;48.270;16.716;2023-08-24T08:54:23;8.25;;;5.82;;
48554;SDS011;34336;48.270;16.716;2023-08-24T08:56:50;7.32;;;6.05;;
48554;SDS011;34336;48.270;16.716;2023-08-24T08:59:17;8.70;;;5.90;;
48554;SDS011;34336;48.270;16.716;2023-08-24T09:01:44;6.97;;;5.65;;
48554;SDS011;34336;48.270;16.716;2023-08-24T09:04:12;7.15;;;5.80;;
48554;SDS011;34336;48.270;16.716;2023-08-24T09:06:39;8.15;;;5.65;;
48554;SDS011;34336;48.270;16.716;2023-08-24T09:09:07;7.03;;;5.70;;
48554;SDS011;34336;48.270;16.716;2023-08-24T09:11:34;7.80;;;5.28;;
48554;SDS011;34336;48.270;16.716;2023-08-24T09:14:02;7.80;;;5.50;;
48554;SDS011;34336;48.270;16.716;2023-08-24T09:16:29;7.55;;;5.35;;
48554;SDS011;34336;48.270;16.716;2023-08-24T09:18:56;6.10;;;5.13;;
48554;SDS011;34336;48.270;16.716;2023-08-24T09:21:23;7.10;;;5.55;;
48554;SDS011;34336;48.270;16.716;2023-08-24T09:23:52;6.13;;;5.07;;
48554;SDS011;34336;48.270;16.716;2023-08-24T09:26:31;5.47;;;4.90;;
48554;SDS011;34336;48.270;16.716;2023-08-24T09:29:13;6.95;;;4.70;;
48554;SDS011;34336;48.270;16.716;2023-08-24T09:31:42;7.20;;;5.38;;
48554;SDS011;34336;48.270;16.716;2023-08-24T09:34:10;8.73;;;4.70;;
48554;SDS011;34336;48.270;16.716;2023-08-24T09:36:38;6.15;;;4.70;;
48554;SDS011;34336;48.270;16.716;2023-08-24T09:39:06;6.47;;;4.50;;
48554;SDS011;34336;48.270;16.716;2023-08-24T09:44:10;5.32;;;4.82;;
48554;SDS011;34336;48.270;16.716;2023-08-24T09:46:42;5.63;;;3.92;;
48554;SDS011;34336;48.270;16.716;2023-08-24T09:49:09;5.70;;;4.80;;
48554;SDS011;34336;48.270;16.716;2023-08-24T09:51:38;8.20;;;4.97;;
48554;SDS011;34336;48.270;16.716;2023-08-24T09:54:07;6.80;;;4.20;;
48554;SDS011;34336;48.270;16.716;2023-08-24T09:56:37;6.57;;;4.70;;
48554;SDS011;34336;48.270;16.716;2023-08-24T09:59:07;8.35;;;4.70;;
48554;SDS011;34336;48.270;16.716;2023-08-24T10:01:42;7.35;;;4.85;;
48554;SDS011;34336;48.270;16.716;2023-08-24T10:04:23;7.00;;;5.15;;
48554;SDS011;34336;48.270;16.716;2023-08-24T10:06:53;8.07;;;4.85;;
48554;SDS011;34336;48.270;16.716;2023-08-24T10:09:40;5.88;;;4.65;;
48554;SDS011;34336;48.270;16.716;2023-08-24T10:12:14;6.15;;;4.38;;
48554;SDS011;34336;48.270;16.716;2023-08-24T10:14:49;6.97;;;5.20;;
48554;SDS011;34336;48.270;16.716;2023-08-24T10:17:35;7.47;;;5.18;;
48554;SDS011;34336;48.270;16.716;2023-08-24T10:20:05;8.93;;;5.20;;
48554;SDS011;34336;48.270;16.716;2023-08-24T10:22:35;6.10;;;5.00;;
48554;SDS011;34336;48.270;16.716;2023-08-24T10:25:03;7.28;;;5.15;;
48554;SDS011;34336;48.270;16.716;2023-08-24T10:27:31;6.80;;;5.55;;
48554;SDS011;34336;48.270;16.716;2023-08-24T10:29:59;8.18;;;4.47;;
48554;SDS011;34336;48.270;16.716;2023-08-24T10:32:26;9.02;;;5.15;;
48554;SDS011;34336;48.270;16.716;2023-08-24T10:34:54;8.80;;;5.00;;
48554;SDS011;34336;48.270;16.716;2023-08-24T10:37:27;7.13;;;5.05;;
48554;SDS011;34336;48.270;16.716;2023-08-24T10:39:54;7.13;;;5.00;;
48554;SDS011;34336;48.270;16.716;2023-08-24T10:42:21;8.52;;;5.28;;
48554;SDS011;34336;48.270;16.716;2023-08-24T10:44:48;6.75;;;5.05;;
48554;SDS011;34336;48.270;16.716;2023-08-24T10:52:25;5.90;;;4.65;;
48554;SDS011;34336;48.270;16.716;2023-08-24T10:55:04;9.70;;;5.10;;
48554;SDS011;34336;48.270;16.716;2023-08-24T10:57:55;7.53;;;4.95;;
48554;SDS011;34336;48.270;16.716;2023-08-24T11:00:25;8.38;;;4.97;;
48554;SDS011;34336;48.270;16.716;2023-08-24T11:02:54;8.43;;;5.65;;
48554;SDS011;34336;48.270;16.716;2023-08-24T11:05:27;6.95;;;5.40;;
48554;SDS011;34336;48.270;16.716;2023-08-24T11:07:57;5.83;;;4.40;;
48554;SDS011;34336;48.270;16.716;2023-08-24T11:10:47;5.88;;;5.05;;
48554;SDS011;34336;48.270;16.716;2023-08-24T11:15:44;7.60;;;4.40;;
48554;SDS011;34336;48.270;16.716;2023-08-24T11:21:02;5.78;;;4.25;;
48554;SDS011;34336;48.270;16.716;2023-08-24T11:23:30;9.13;;;4.75;;
48554;SDS011;34336;48.270;16.716;2023-08-24T11:25:58;7.47;;;4.90;;
48554;SDS011;34336;48.270;16.716;2023-08-24T11:28:27;6.82;;;4.72;;
48554;SDS011;34336;48.270;16.716;2023-08-24T11:30:56;6.70;;;5.07;;
48554;SDS011;34336;48.270;16.716;2023-08-24T11:33:30;7.50;;;5.30;;
48554;SDS011;34336;48.270;16.716;2023-08-24T11:36:02;5.03;;;4.53;;
48554;SDS011;34336;48.270;16.716;2023-08-24T11:41:14;8.25;;;5.15;;
48554;SDS011;34336;48.270;16.716;2023-08-24T11:43:46;8.52;;;5.00;;
48554;SDS011;34336;48.270;16.716;2023-08-24T11:46:17;7.32;;;5.20;;
48554;SDS011;34336;48.270;16.716;2023-08-24T11:48:45;7.30;;;4.88;;
48554;SDS011;34336;48.270;16.716;2023-08-24T11:51:12;6.07;;;4.28;;
48554;SDS011;34336;48.270;16.716;2023-08-24T11:53:43;7.38;;;4.57;;
48554;SDS011;34336;48.270;16.716;2023-08-24T11:56:12;6.22;;;4.55;;
48554;SDS011;34336;48.270;16.716;2023-08-24T11:58:40;7.57;;;4.70;;
48554;SDS011;34336;48.270;16.716;2023-08-24T12:01:08;7.07;;;4.63;;
48554;SDS011;34336;48.270;16.716;2023-08-24T12:03:37;7.35;;;4.75;;
48554;SDS011;34336;48.270;16.716;2023-08-24T12:06:11;7.40;;;4.60;;
48554;SDS011;34336;48.270;16.716;2023-08-24T12:08:40;8.63;;;4.65;;
48554;SDS011;34336;48.270;16.716;2023-08-24T12:11:20;11.35;;;4.70;;
48554;SDS011;34336;48.270;16.716;2023-08-24T12:13:51;8.15;;;4.72;;
48554;SDS011;34336;48.270;16.716;2023-08-24T12:16:19;7.93;;;4.10;;
48554;SDS011;34336;48.270;16.716;2023-08-24T12:18:51;5.78;;;4.85;;
48554;SDS011;34336;48.270;16.716;2023-08-24T12:21:20;7.68;;;4.70;;
48554;SDS011;34336;48.270;16.716;2023-08-24T12:26:30;7.30;;;3.97;;
48554;SDS011;34336;48.270;16.716;2023-08-24T12:29:04;7.20;;;4.55;;
48554;SDS011;34336;48.270;16.716;2023-08-24T12:31:32;7.60;;;4.63;;
48554;SDS011;34336;48.270;16.716;2023-08-24T12:34:03;7.25;;;4.35;;
48554;SDS011;34336;48.270;16.716;2023-08-24T12:36:37;6.13;;;3.95;;
48554;SDS011;34336;48.270;16.716;2023-08-24T12:39:05;7.53;;;5.10;;
48554;SDS011;34336;48.270;16.716;2023-08-24T12:41:34;7.38;;;4.60;;
48554;SDS011;34336;48.270;16.716;2023-08-24T12:44:01;6.70;;;4.60;;
48554;SDS011;34336;48.270;16.716;2023-08-24T12:46:32;8.95;;;4.53;;
48554;SDS011;34336;48.270;16.716;2023-08-24T12:49:00;8.90;;;4.78;;
48554;SDS011;34336;48.270;16.716;2023-08-24T12:51:27;9.02;;;4.43;;
48554;SDS011;34336;48.270;16.716;2023-08-24T12:53:54;7.05;;;4.03;;
48554;SDS011;34336;48.270;16.716;2023-08-24T12:56:21;5.25;;;4.40;;
48554;SDS011;34336;48.270;16.716;2023-08-24T12:58:47;5.55;;;3.42;;
48554;SDS011;34336;48.270;16.716;2023-08-24T13:01:14;7.03;;;4.05;;
48554;SDS011;34336;48.270;16.716;2023-08-24T13:03:41;9.18;;;4.30;;
48554;SDS011;34336;48.270;16.716;2023-08-24T13:06:08;5.28;;;3.90;;
48554;SDS011;34336;48.270;16.716;2023-08-24T13:08:53;5.82;;;4.28;;
48554;SDS011;34336;48.270;16.716;2023-08-24T13:11:20;5.55;;;4.10;;
48554;SDS011;34336;48.270;16.716;2023-08-24T13:13:48;7.88;;;3.95;;
48554;SDS011;34336;48.270;16.716;2023-08-24T13:16:15;5.85;;;3.80;;
48554;SDS011;34336;48.270;16.716;2023-08-24T13:18:42;5.85;;;4.28;;
48554;SDS011;34336;48.270;16.716;2023-08-24T13:21:09;5.82;;;4.05;;
48554;SDS011;34336;48.270;16.716;2023-08-24T13:23:36;7.32;;;4.13;;
48554;SDS011;34336;48.270;16.716;2023-08-24T13:26:03;5.13;;;4.15;;
48554;SDS011;34336;48.270;16.716;2023-08-24T13:28:30;9.27;;;4.35;;
48554;SDS011;34336;48.270;16.716;2023-08-24T13:30:56;7.38;;;4.35;;
48554;SDS011;34336;48.270;16.716;2023-08-24T13:33:23;6.18;;;4.47;;
48554;SDS011;34336;48.270;16.716;2023-08-24T13:35:50;6.00;;;4.43;;
48554;SDS011;34336;48.270;16.716;2023-08-24T13:38:17;7.65;;;4.03;;
48554;SDS011;34336;48.270;16.716;2023-08-24T13:40:44;6.22;;;3.90;;
48554;SDS011;34336;48.270;16.716;2023-08-24T13:43:15;7.72;;;4.55;;
48554;SDS011;34336;48.270;16.716;2023-08-24T13:45:42;8.10;;;5.00;;
48554;SDS011;34336;48.270;16.716;2023-08-24T13:48:09;6.85;;;4.32;;
48554;SDS011;34336;48.270;16.716;2023-08-24T13:50:36;5.70;;;4.35;;
48554;SDS011;34336;48.270;16.716;2023-08-24T13:53:03;6.55;;;4.00;;
48554;SDS011;34336;48.270;16.716;2023-08-24T13:55:30;6.90;;;4.10;;
48554;SDS011;34336;48.270;16.716;2023-08-24T13:57:56;6.03;;;4.13;;
48554;SDS011;34336;48.270;16.716;2023-08-24T14:00:23;6.50;;;3.75;;
48554;SDS011;34336;48.270;16.716;2023-08-24T14:02:51;5.70;;;4.03;;
48554;SDS011;34336;48.270;16.716;2023-08-24T14:05:19;6.10;;;4.30;;
48554;SDS011;34336;48.270;16.716;2023-08-24T14:07:46;6.45;;;4.32;;
48554;SDS011;34336;48.270;16.716;2023-08-24T14:10:12;7.95;;;4.30;;
48554;SDS011;34336;48.270;16.716;2023-08-24T14:12:39;6.15;;;4.35;;
48554;SDS011;34336;48.270;16.716;2023-08-24T14:15:06;6.00;;;4.30;;
48554;SDS011;34336;48.270;16.716;2023-08-24T14:17:33;6.70;;;4.53;;
48554;SDS011;34336;48.270;16.716;2023-08-24T14:20:00;5.75;;;4.35;;
48554;SDS011;34336;48.270;16.716;2023-08-24T14:22:30;6.03;;;4.15;;
48554;SDS011;34336;48.270;16.716;2023-08-24T14:24:57;6.03;;;4.60;;
48554;SDS011;34336;48.270;16.716;2023-08-24T14:27:24;6.53;;;4.65;;
48554;SDS011;34336;48.270;16.716;2023-08-24T14:29:51;6.82;;;4.72;;
48554;SDS011;34336;48.270;16.716;2023-08-24T14:32:18;7.03;;;4.80;;
48554;SDS011;34336;48.270;16.716;2023-08-24T14:34:45;8.98;;;4.40;;
48554;SDS011;34336;48.270;16.716;2023-08-24T14:37:11;7.85;;;4.70;;
48554;SDS011;34336;48.270;16.716;2023-08-24T14:39:38;5.13;;;4.25;;
48554;SDS011;34336;48.270;16.716;2023-08-24T14:42:05;6.20;;;4.47;;
48554;SDS011;34336;48.270;16.716;2023-08-24T14:44:33;7.40;;;5.30;;
48554;SDS011;34336;48.270;16.716;2023-08-24T14:47:01;6.85;;;4.75;;
48554;SDS011;34336;48.270;16.716;2023-08-24T14:49:28;6.72;;;4.45;;
48554;SDS011;34336;48.270;16.716;2023-08-24T14:51:55;7.10;;;4.32;;